aviador You're here:

KPHL Decoded Metar

PHILADELPHIA in PA, USA
Report Time2018-05-23 15:54:00
UTC Time2018-05-23 16:32:45
Flight Rules vfr VFR
Wind350° at 13 kt
W.Decomp.*RWY 35: 12.8 kt HW 2.3 kt RCW
RWY 08: 2.3 kt HW 12.8 kt LCW
RWY 27: 13.0 kt RCW
W.Rank350° ranks 17
Current wind is above 350° avg. (8.3)
Visibility9999 m
Phenomena:N/A
Clouds:Scattered 033 Hf
Scattered 050 Hf
Expected CloudBase > 3,200 ft AGL from Temp-Dew spread
CeilingNone
Temp25°C (ISA +10)
Dew Point17°C (61% RH)
AAT22.7°C
QNH1015 hPa
Density Alt1,421 ft
Elevation59 ft
Report Wrong Elevation
Raw Report
KPHL 231554Z 35013KT 10SM SCT033 SCT050 25/17 A2997 RMK AO2 SLP146
T02500172=

Extra information for KPHL:More info

Metar Taf Metar & Taf Last 4 Metars F.Rules Stats Wind Profile Meteogram Temp Stats Airport Information Weather charts Add Link Nearby VenuesMetar ALERT Operation Metar Decoded Social comments

AIRNAV info for KPHL